createdAt,value
2018-01-16T00:01:07.237Z,7.20
2018-01-16T00:04:18.187Z,7.27
2018-01-16T00:07:29.295Z,7.30
2018-01-16T00:10:38.925Z,6.70
2018-01-16T00:13:49.111Z,7.13
2018-01-16T00:16:58.883Z,6.90
2018-01-16T00:20:10.128Z,7.00
2018-01-16T00:23:21.310Z,6.73
2018-01-16T00:26:31.910Z,6.23
2018-01-16T00:29:41.697Z,5.77
2018-01-16T00:32:57.600Z,6.77
2018-01-16T00:36:13.241Z,6.10
2018-01-16T00:39:25.274Z,6.30
2018-01-16T00:42:36.376Z,5.80
2018-01-16T00:45:51.725Z,5.67
2018-01-16T00:49:01.310Z,5.63
2018-01-16T00:52:10.794Z,4.87
2018-01-16T00:55:20.706Z,5.07
2018-01-16T00:58:31.368Z,5.70
2018-01-16T01:01:42.963Z,5.10
2018-01-16T01:04:52.615Z,4.57
2018-01-16T01:08:03.844Z,4.00
2018-01-16T01:11:16.360Z,4.50
2018-01-16T01:14:27.941Z,4.53
2018-01-16T01:17:37.686Z,4.17
2018-01-16T01:21:06.386Z,3.70
2018-01-16T01:24:16.974Z,3.03
2018-01-16T01:27:30.891Z,3.10
2018-01-16T01:30:42.948Z,3.43
2018-01-16T01:33:51.407Z,2.50
2018-01-16T01:36:59.122Z,3.00
2018-01-16T01:40:08.226Z,3.10
2018-01-16T01:43:19.436Z,2.30
2018-01-16T01:46:29.917Z,2.63
2018-01-16T01:49:40.178Z,2.30
2018-01-16T01:52:50.327Z,2.27
2018-01-16T01:56:04.692Z,2.03
2018-01-16T01:59:13.950Z,2.93
2018-01-16T02:02:27.630Z,2.50
2018-01-16T02:05:42.652Z,2.50
2018-01-16T02:08:52.435Z,2.43
2018-01-16T02:12:02.631Z,2.30
2018-01-16T02:15:14.847Z,2.30
2018-01-16T02:18:27.644Z,3.33
2018-01-16T02:21:40.600Z,3.17
2018-01-16T02:24:51.053Z,3.20
2018-01-16T02:28:01.787Z,4.20
2018-01-16T02:31:10.975Z,3.70
2018-01-16T02:34:21.734Z,3.90
2018-01-16T02:37:33.063Z,3.53
2018-01-16T02:40:42.155Z,4.83
2018-01-16T02:43:50.646Z,4.03
2018-01-16T02:47:00.326Z,3.33
2018-01-16T02:50:14.388Z,3.90
2018-01-16T02:53:25.678Z,4.07
2018-01-16T02:56:42.224Z,3.97
2018-01-16T02:59:56.364Z,4.30
2018-01-16T03:03:11.149Z,4.30
2018-01-16T03:06:20.502Z,4.73
2018-01-16T03:09:29.712Z,4.63
2018-01-16T03:12:39.317Z,4.60
2018-01-16T03:15:49.542Z,4.60
2018-01-16T03:19:01.343Z,4.13
2018-01-16T03:22:12.226Z,3.60
2018-01-16T03:25:21.974Z,3.00
2018-01-16T03:28:31.448Z,2.73
2018-01-16T03:31:41.743Z,2.83
2018-01-16T03:34:52.370Z,2.17
2018-01-16T03:38:03.225Z,2.43
2018-01-16T03:41:12.781Z,2.30
2018-01-16T03:44:24.599Z,2.57
2018-01-16T03:47:35.460Z,2.43
2018-01-16T03:50:48.120Z,2.70
2018-01-16T03:53:59.208Z,2.03
2018-01-16T03:57:10.959Z,1.90
2018-01-16T04:00:35.434Z,2.23
2018-01-16T04:03:44.404Z,2.33
2018-01-16T04:06:55.228Z,2.43
2018-01-16T04:10:05.856Z,2.07
2018-01-16T04:13:16.199Z,2.80
2018-01-16T04:16:27.319Z,2.43
2018-01-16T04:19:40.014Z,2.60
2018-01-16T04:22:50.051Z,2.63
2018-01-16T04:26:01.937Z,2.40
2018-01-16T04:29:14.376Z,2.10
2018-01-16T04:32:24.289Z,2.73
2018-01-16T04:35:34.786Z,2.50
2018-01-16T04:38:47.646Z,2.40
2018-01-16T04:41:58.889Z,2.67
2018-01-16T04:45:08.666Z,2.20
2018-01-16T04:48:20.213Z,1.83
2018-01-16T04:51:31.840Z,2.10
2018-01-16T04:54:46.369Z,2.90
2018-01-16T04:57:56.298Z,2.20
2018-01-16T05:01:17.196Z,1.80
2018-01-16T05:04:32.482Z,2.93
2018-01-16T05:07:42.181Z,1.90
2018-01-16T05:10:54.885Z,2.10
2018-01-16T05:14:08.204Z,1.87
2018-01-16T05:17:16.048Z,1.93
2018-01-16T05:20:27.214Z,1.80
2018-01-16T05:23:39.665Z,1.63
2018-01-16T05:26:49.749Z,1.80
2018-01-16T05:30:01.150Z,2.43
2018-01-16T05:33:15.539Z,2.60
2018-01-16T05:36:27.175Z,1.30
2018-01-16T05:39:40.527Z,1.33
2018-01-16T05:46:10.426Z,1.50
2018-01-16T05:49:22.353Z,1.70
2018-01-16T05:52:32.961Z,1.40
2018-01-16T05:55:55.939Z,2.47
2018-01-16T05:59:03.846Z,1.97
2018-01-16T06:02:15.973Z,1.80
2018-01-16T06:05:26.561Z,1.93
2018-01-16T06:08:37.373Z,1.43
2018-01-16T06:11:49.028Z,1.33
2018-01-16T06:15:00.058Z,1.37
2018-01-16T06:18:09.866Z,1.60
2018-01-16T06:21:20.783Z,1.80
2018-01-16T06:24:30.889Z,1.87
2018-01-16T06:27:40.249Z,2.57
2018-01-16T06:30:51.150Z,2.23
2018-01-16T06:34:02.759Z,2.00
2018-01-16T06:37:13.287Z,1.97
2018-01-16T06:40:24.576Z,2.60
2018-01-16T06:43:35.880Z,2.30
2018-01-16T06:46:46.599Z,2.10
2018-01-16T06:49:57.684Z,2.13
2018-01-16T06:53:09.308Z,2.67
2018-01-16T06:56:19.639Z,2.57
2018-01-16T06:59:30.986Z,2.60
2018-01-16T07:02:45.762Z,3.03
2018-01-16T07:05:58.518Z,3.23
2018-01-16T07:09:11.851Z,2.60
2018-01-16T07:12:22.569Z,3.00
2018-01-16T07:15:38.768Z,2.80
2018-01-16T07:19:01.913Z,2.50
2018-01-16T07:22:12.836Z,2.87
2018-01-16T07:25:22.010Z,2.80
2018-01-16T07:28:31.081Z,2.60
2018-01-16T07:31:45.595Z,3.10
2018-01-16T07:35:00.728Z,2.13
2018-01-16T07:38:13.540Z,2.60
2018-01-16T07:41:24.356Z,2.83
2018-01-16T07:44:35.348Z,2.20
2018-01-16T07:47:52.148Z,1.60
2018-01-16T07:51:05.700Z,2.00
2018-01-16T07:54:19.040Z,1.97
2018-01-16T07:57:29.718Z,1.93
2018-01-16T08:00:43.070Z,1.80
2018-01-16T08:03:54.643Z,1.77
2018-01-16T08:07:06.459Z,2.03
2018-01-16T08:10:19.899Z,1.70
2018-01-16T08:13:35.464Z,1.60
2018-01-16T08:16:48.749Z,1.53
2018-01-16T08:20:02.068Z,1.50
2018-01-16T08:23:15.289Z,1.97
2018-01-16T08:26:28.334Z,1.80
2018-01-16T08:29:41.868Z,1.63
2018-01-16T08:32:55.755Z,1.83
2018-01-16T08:36:04.375Z,1.97
2018-01-16T08:39:18.367Z,1.97
2018-01-16T08:42:32.504Z,2.10
2018-01-16T08:45:46.030Z,1.83
2018-01-16T08:49:17.074Z,2.67
2018-01-16T08:52:30.778Z,2.67
2018-01-16T08:55:41.749Z,2.10
2018-01-16T08:58:52.000Z,2.60
2018-01-16T09:02:04.883Z,2.30
2018-01-16T09:05:17.782Z,2.97
2018-01-16T09:08:29.041Z,2.53
2018-01-16T09:11:42.894Z,2.27
2018-01-16T09:14:53.695Z,2.47
2018-01-16T09:18:09.197Z,2.10
2018-01-16T09:21:21.719Z,2.17
2018-01-16T09:24:32.763Z,1.77
2018-01-16T09:27:43.560Z,1.57
2018-01-16T09:30:55.026Z,2.07
2018-01-16T09:34:04.058Z,1.80
2018-01-16T09:37:13.717Z,1.67
2018-01-16T09:40:24.806Z,1.97
2018-01-16T09:43:36.715Z,1.37
2018-01-16T09:46:48.084Z,1.33
2018-01-16T09:50:01.693Z,1.20
2018-01-16T09:53:12.229Z,1.17
2018-01-16T09:56:28.636Z,1.60
2018-01-16T09:59:39.669Z,1.27
2018-01-16T10:02:51.396Z,1.23
2018-01-16T10:06:03.993Z,1.13
2018-01-16T10:09:17.485Z,1.00
2018-01-16T10:12:28.529Z,1.13
2018-01-16T10:15:43.081Z,1.07
2018-01-16T10:18:53.946Z,1.20
2018-01-16T10:22:04.607Z,1.30
2018-01-16T10:25:14.406Z,1.23
2018-01-16T10:28:25.918Z,1.43
2018-01-16T10:31:41.625Z,1.73
2018-01-16T10:34:51.768Z,1.70
2018-01-16T10:38:02.805Z,2.10
2018-01-16T10:41:14.205Z,2.00
2018-01-16T10:44:24.195Z,1.87
2018-01-16T10:47:32.624Z,2.70
2018-01-16T10:50:43.819Z,2.13
2018-01-16T10:53:53.996Z,2.93
2018-01-16T10:57:05.313Z,2.10
2018-01-16T11:00:20.625Z,2.53
2018-01-16T11:03:39.606Z,3.00
2018-01-16T11:06:49.632Z,2.93
2018-01-16T11:10:01.052Z,3.17
2018-01-16T11:13:12.834Z,2.77
2018-01-16T11:16:23.008Z,3.00
2018-01-16T11:19:35.559Z,2.50
2018-01-16T11:22:50.783Z,3.20
2018-01-16T11:26:02.102Z,4.13
2018-01-16T11:29:14.426Z,3.83
2018-01-16T11:32:24.745Z,3.80
2018-01-16T11:35:36.426Z,4.90
2018-01-16T11:39:12.952Z,5.30
2018-01-16T11:42:23.215Z,5.70
2018-01-16T11:45:34.700Z,6.13
2018-01-16T11:48:45.552Z,5.97
2018-01-16T11:51:54.072Z,4.87
2018-01-16T11:55:04.231Z,3.90
2018-01-16T11:58:13.498Z,5.20
2018-01-16T12:01:27.687Z,5.23
2018-01-16T12:04:38.606Z,4.60
2018-01-16T12:07:51.129Z,4.30
2018-01-16T12:11:00.036Z,5.27
2018-01-16T12:14:12.425Z,3.70
2018-01-16T12:17:23.190Z,3.93
2018-01-16T12:20:33.702Z,3.60
2018-01-16T12:23:43.117Z,3.43
2018-01-16T12:26:53.593Z,3.67
2018-01-16T12:30:04.811Z,3.13
2018-01-16T12:33:14.379Z,3.43
2018-01-16T12:36:23.320Z,3.30
2018-01-16T12:39:37.127Z,2.90
2018-01-16T12:42:45.452Z,3.33
2018-01-16T12:45:54.187Z,3.40
2018-01-16T12:49:03.248Z,3.50
2018-01-16T12:52:15.467Z,5.07
2018-01-16T12:55:39.638Z,6.50
2018-01-16T12:58:50.786Z,4.50
2018-01-16T13:02:02.191Z,4.97
2018-01-16T13:05:12.684Z,5.33
2018-01-16T13:08:23.358Z,4.20
2018-01-16T13:11:32.451Z,4.13
2018-01-16T13:14:42.180Z,4.33
2018-01-16T13:18:10.521Z,9.40
2018-01-16T13:21:23.828Z,9.07
2018-01-16T13:24:34.571Z,5.97
2018-01-16T13:27:45.748Z,4.80
2018-01-16T13:30:58.068Z,5.00
2018-01-16T13:37:23.586Z,2.97
2018-01-16T13:40:42.658Z,2.20
2018-01-16T13:43:53.346Z,1.80
2018-01-16T13:47:04.772Z,1.73
2018-01-16T13:50:17.863Z,1.13
2018-01-16T13:53:28.326Z,1.63
2018-01-16T13:56:39.263Z,1.50
2018-01-16T13:59:50.072Z,1.13
2018-01-16T14:03:01.965Z,1.50
2018-01-16T14:06:15.959Z,1.30
2018-01-16T14:09:28.240Z,0.80
2018-01-16T14:12:39.554Z,1.03
2018-01-16T14:15:52.783Z,0.80
2018-01-16T14:19:04.988Z,1.13
2018-01-16T14:22:14.958Z,0.60
2018-01-16T14:25:26.648Z,1.07
2018-01-16T14:28:39.095Z,0.80
2018-01-16T14:31:51.594Z,0.87
2018-01-16T14:35:04.373Z,0.60
2018-01-16T14:38:17.743Z,0.80
2018-01-16T14:41:31.494Z,0.70
2018-01-16T14:44:41.165Z,0.73
2018-01-16T14:47:52.096Z,0.90
2018-01-16T14:51:01.548Z,0.90
2018-01-16T14:54:12.180Z,0.97
2018-01-16T14:57:21.786Z,0.80
2018-01-16T15:00:31.579Z,1.07
2018-01-16T15:03:43.529Z,0.80
2018-01-16T15:07:00.331Z,1.70
2018-01-16T15:10:13.251Z,1.37
2018-01-16T15:13:25.578Z,1.27
2018-01-16T15:16:38.624Z,0.90
2018-01-16T15:19:49.971Z,1.00
2018-01-16T15:22:59.239Z,1.53
2018-01-16T15:26:09.921Z,1.50
2018-01-16T15:29:21.017Z,1.43
2018-01-16T15:32:32.058Z,1.23
2018-01-16T15:35:51.042Z,1.50
2018-01-16T15:39:02.318Z,1.40
2018-01-16T15:42:13.154Z,1.17
2018-01-16T15:45:24.897Z,1.50
2018-01-16T15:48:32.699Z,1.70
2018-01-16T15:51:40.809Z,1.50
2018-01-16T15:54:48.833Z,1.20
2018-01-16T15:57:59.670Z,1.20
2018-01-16T16:01:06.482Z,2.07
2018-01-16T16:04:15.852Z,1.10
2018-01-16T16:07:25.190Z,1.70
2018-01-16T16:10:43.475Z,1.20
2018-01-16T16:14:21.142Z,2.03
2018-01-16T16:17:31.323Z,1.73
2018-01-16T16:20:47.198Z,1.40
2018-01-16T16:24:06.132Z,1.13
2018-01-16T16:30:41.919Z,1.10
2018-01-16T16:37:22.133Z,1.13
2018-01-16T16:40:31.726Z,1.30
2018-01-16T16:43:41.912Z,0.80
2018-01-16T16:47:11.831Z,0.80
2018-01-16T16:50:22.896Z,1.60
2018-01-16T16:53:32.862Z,1.80
2018-01-16T16:56:48.303Z,1.90
2018-01-16T17:00:10.579Z,1.63
2018-01-16T17:03:24.400Z,2.00
2018-01-16T17:06:42.176Z,2.20
2018-01-16T17:13:17.284Z,2.27
2018-01-16T17:16:25.652Z,2.87
2018-01-16T17:19:38.626Z,2.17
2018-01-16T17:22:53.176Z,1.90
2018-01-16T17:26:05.507Z,2.70
2018-01-16T17:29:16.030Z,2.20
2018-01-16T17:32:28.773Z,2.70
2018-01-16T17:35:38.865Z,3.57
2018-01-16T17:38:50.268Z,2.60
2018-01-16T17:41:59.813Z,2.00
2018-01-16T17:45:13.475Z,2.50
2018-01-16T17:48:25.489Z,2.17
2018-01-16T17:51:34.777Z,2.30
2018-01-16T17:54:49.980Z,1.77
2018-01-16T17:57:58.441Z,2.23
2018-01-16T18:01:09.223Z,1.60
2018-01-16T18:04:21.694Z,1.70
2018-01-16T18:07:31.408Z,1.50
2018-01-16T18:10:40.498Z,2.10
2018-01-16T18:13:53.186Z,2.20
2018-01-16T18:17:05.534Z,1.93
2018-01-16T18:20:15.064Z,2.00
2018-01-16T18:23:27.924Z,2.20
2018-01-16T18:26:41.432Z,2.10
2018-01-16T18:29:56.371Z,1.50
2018-01-16T18:33:05.961Z,2.07
2018-01-16T18:36:13.052Z,2.30
2018-01-16T18:39:25.606Z,2.37
2018-01-16T18:42:35.210Z,2.30
2018-01-16T18:45:47.352Z,3.07
2018-01-16T18:48:56.902Z,4.30
2018-01-16T18:52:06.359Z,4.53
2018-01-16T18:55:17.469Z,4.70
2018-01-16T18:58:29.023Z,4.33
2018-01-16T19:01:45.047Z,5.70
2018-01-16T19:04:56.296Z,4.70
2018-01-16T19:08:05.585Z,4.40
2018-01-16T19:11:14.184Z,5.43
2018-01-16T19:14:23.833Z,4.10
2018-01-16T19:17:35.119Z,4.20
2018-01-16T19:20:46.428Z,4.57
2018-01-16T19:23:58.790Z,3.60
2018-01-16T19:27:13.264Z,3.40
2018-01-16T19:30:25.172Z,3.20
2018-01-16T19:33:34.575Z,3.20
2018-01-16T19:36:48.382Z,3.30
2018-01-16T19:40:02.418Z,2.80
2018-01-16T19:43:16.614Z,2.57
2018-01-16T19:46:37.294Z,2.80
2018-01-16T19:49:49.312Z,2.50
2018-01-16T19:52:59.674Z,2.13
2018-01-16T19:56:09.785Z,3.83
2018-01-16T19:59:22.826Z,2.70
2018-01-16T20:02:32.296Z,2.30
2018-01-16T20:05:43.804Z,2.93
2018-01-16T20:08:54.050Z,3.00
2018-01-16T20:12:05.997Z,3.00
2018-01-16T20:15:26.342Z,3.30
2018-01-16T20:18:39.471Z,2.30
2018-01-16T20:21:48.039Z,2.67
2018-01-16T20:25:04.044Z,2.50
2018-01-16T20:28:19.872Z,2.60
2018-01-16T20:31:36.355Z,2.53
2018-01-16T20:35:00.410Z,2.07
2018-01-16T20:38:09.845Z,2.80
2018-01-16T20:41:26.958Z,2.63
2018-01-16T20:44:40.937Z,2.90
2018-01-16T20:47:57.257Z,2.60
2018-01-16T20:51:19.080Z,3.20
2018-01-16T20:57:47.208Z,3.50
2018-01-16T21:01:15.618Z,3.53
2018-01-16T21:04:43.282Z,4.13
2018-01-16T21:08:04.001Z,3.50
2018-01-16T21:11:20.998Z,4.50
2018-01-16T21:14:44.200Z,4.80
2018-01-16T21:18:14.808Z,4.07
2018-01-16T21:24:44.826Z,5.13
2018-01-16T21:27:56.062Z,4.67
2018-01-16T21:31:05.874Z,5.30
2018-01-16T21:34:26.582Z,4.60
2018-01-16T21:38:02.215Z,5.20
2018-01-16T21:44:49.230Z,5.20
2018-01-16T21:47:59.211Z,3.67
2018-01-16T21:51:15.570Z,4.73
2018-01-16T21:54:24.409Z,4.23
2018-01-16T21:57:38.165Z,4.80
2018-01-16T22:00:49.906Z,3.70
2018-01-16T22:04:18.124Z,3.77
2018-01-16T22:07:29.647Z,4.70
2018-01-16T22:10:37.610Z,3.93
2018-01-16T22:13:47.466Z,2.97
2018-01-16T22:16:56.935Z,2.90
2018-01-16T22:20:04.548Z,3.40
2018-01-16T22:23:12.800Z,3.33
2018-01-16T22:26:30.685Z,2.80
2018-01-16T22:29:46.689Z,3.00
2018-01-16T22:32:56.970Z,3.67
2018-01-16T22:36:06.997Z,4.10
2018-01-16T22:39:15.607Z,4.10
2018-01-16T22:42:24.208Z,4.53
2018-01-16T22:45:35.156Z,4.10
2018-01-16T22:48:46.566Z,3.87
2018-01-16T22:51:56.560Z,4.73
2018-01-16T22:55:07.163Z,4.10
2018-01-16T22:58:21.460Z,4.30
2018-01-16T23:01:37.166Z,5.27
2018-01-16T23:04:52.681Z,4.87
2018-01-16T23:08:02.922Z,4.87
2018-01-16T23:11:13.274Z,4.33
2018-01-16T23:14:29.260Z,4.60
2018-01-16T23:17:43.316Z,4.90
2018-01-16T23:20:57.412Z,3.90
2018-01-16T23:24:10.887Z,4.10
2018-01-16T23:27:21.425Z,4.40
2018-01-16T23:30:32.779Z,5.13
2018-01-16T23:33:50.079Z,4.83
2018-01-16T23:37:03.404Z,4.20
2018-01-16T23:40:13.309Z,4.27
2018-01-16T23:43:24.040Z,4.67
2018-01-16T23:46:34.406Z,5.10
2018-01-16T23:49:44.619Z,4.37
2018-01-16T23:52:56.635Z,4.57
2018-01-16T23:56:06.442Z,3.90
2018-01-16T23:59:17.969Z,5.33
